Flight Track Log - Related Links

Times and Time Zones

All times are in EDT time to prevent confusion due to time zone crossing. See the UAL4274 flight status page for this flight to view local times or setup timezone preferences in your user account.

Time Position Orientation Groundspeed Altitude Reporting Facility
EDT Latitude Longitude Course Direction KTS MPH feet Rate Location/Type
Sat 05:53:40 AM 35.2000 -80.9658 228° Southwest 167 192 1,400  Level Atlanta Center
Sat 05:54:59 AM 35.1494 -81.0336 228° Southwest 224 258 3,400 1,899 Climbing Atlanta Center
Sat 05:55:59 AM 35.1094 -81.1036 235° Southwest 269 310 5,800 2,160 Climbing Atlanta Center
Sat 05:56:14 AM 35.1056 -81.1142 246° West 246 283 6,100 2,240 Climbing Atlanta Center
Sat 05:57:14 AM 35.0867 -81.1958 254° West 262 302 8,600 2,450 Climbing Atlanta Center
Sat 05:58:14 AM 35.0694 -81.2753 255° West 262 302 11,000 1,750 Climbing Atlanta Center
Sat 05:59:14 AM 35.0506 -81.3594 255° West 262 302 12,100 1,100 Climbing Atlanta Center
Sat 06:00:14 AM 35.0275 -81.4567 254° West 287 330 13,200 1,050 Climbing Atlanta Center
Sat 06:01:14 AM 35.0008 -81.5692 254° West 306 352 14,200 1,250 Climbing Atlanta Center
Sat 06:02:14 AM 34.9736 -81.6714 252° West 316 364 15,700 1,500 Climbing Atlanta Center
Sat 06:03:14 AM 34.9419 -81.7736 249° West 316 364 17,200 1,500 Climbing Atlanta Center
Sat 06:04:14 AM 34.9000 -81.8683 242° Southwest 316 364 18,700 1,400 Climbing Atlanta Center
Sat 06:05:14 AM 34.8575 -81.9428 235° Southwest 316 364 20,000 1,400 Climbing Atlanta Center
Sat 06:06:14 AM 34.8067 -82.0275 234° Southwest 316 364 21,500 1,300 Climbing Atlanta Center
Sat 06:07:14 AM 34.7561 -82.1225 237° Southwest 322 371 22,600 1,050 Climbing Atlanta Center
Sat 06:08:14 AM 34.7031 -82.2119 234° Southwest 322 371 23,600 1,000 Climbing Atlanta Center
Sat 06:09:14 AM 34.6503 -82.3042 235° Southwest 334 384 24,600 950 Climbing Atlanta Center
Sat 06:10:14 AM 34.5972 -82.3986 236° Southwest 341 392 25,500 950 Climbing Atlanta Center
Sat 06:11:14 AM 34.5422 -82.4931 235° Southwest 341 392 26,500 1,000 Climbing Atlanta Center
Sat 06:12:14 AM 34.4889 -82.5872 236° Southwest 341 392 27,500 1,050 Climbing Atlanta Center
Sat 06:13:14 AM 34.4275 -82.6864 233° Southwest 341 392 28,600 1,050 Climbing Atlanta Center
Sat 06:14:14 AM 34.3764 -82.7778 236° Southwest 335 386 29,600 1,000 Climbing Atlanta Center
Sat 06:15:14 AM 34.3208 -82.8667 233° Southwest 340 391 30,600 1,000 Climbing Atlanta Center
Sat 06:16:14 AM 34.2736 -82.9578 238° Southwest 335 386 31,600 1,000 Climbing Atlanta Center
Sat 06:17:14 AM 34.2181 -83.0514 234° Southwest 340 391 32,600 950 Climbing Atlanta Center
Sat 06:18:14 AM 34.1667 -83.1400 235° Southwest 335 386 33,500 1,000 Climbing Atlanta Center
Sat 06:19:14 AM 34.1108 -83.2283 233° Southwest 335 386 34,600 992 Climbing Atlanta Center
Sat 06:20:15 AM 34.0592 -83.3167 235° Southwest 335 386 35,500 700 Climbing Atlanta Center
Sat 06:21:14 AM 34.0139 -83.3947 235° Southwest 330 380 36,000 252 Climbing Atlanta Center
Sat 06:22:14 AM 33.9619 -83.4828 235° Southwest 336 387 36,000  Level Atlanta Center
Sat 06:23:14 AM 33.9061 -83.5783 235° Southwest 341 392 36,000  Level Atlanta Center
Sat 06:24:14 AM 33.8500 -83.6736 235° Southwest 346 398 36,000  Level Atlanta Center
Sat 06:25:14 AM 33.7919 -83.7714 234° Southwest 354 407 36,000  Level Atlanta Center
Sat 06:26:14 AM 33.7294 -83.8764 234° Southwest 359 413 36,000  Level Atlanta Center
Sat 06:27:14 AM 33.6711 -83.9714 234° Southwest 359 413 36,000  Level Atlanta Center
Sat 06:28:14 AM 33.6169 -84.0636 235° Southwest 359 413 36,000  Level Atlanta Center
Sat 06:29:14 AM 33.5583 -84.1608 234° Southwest 359 413 36,000  Level Atlanta Center
Sat 06:30:14 AM 33.5019 -84.2556 234° Southwest 359 413 36,000  Level Atlanta Center
Sat 06:31:14 AM 33.4453 -84.3475 234° Southwest 359 413 36,000  Level Atlanta Center
Sat 06:32:14 AM 33.3886 -84.4444 235° Southwest 359 413 36,000  Level Atlanta Center
Sat 06:33:14 AM 33.3383 -84.5286 234° Southwest 359 413 36,000  Level Atlanta Center
Sat 06:34:14 AM 33.2814 -84.6253 235° Southwest 359 413 36,000  Level Atlanta Center
Sat 06:35:15 AM 33.2225 -84.7167 232° Southwest 358 412 36,000  Level Atlanta Center
Sat 06:36:15 AM 33.1656 -84.8156 235° Southwest 358 412 36,000  Level Atlanta Center
Sat 06:37:14 AM 33.1067 -84.9092 233° Southwest 358 412 36,000  Level Atlanta Center
Sat 06:38:15 AM 33.0431 -85.0153 234° Southwest 364 419 36,000  Level Atlanta Center
Sat 06:39:14 AM 32.9839 -85.1086 233° Southwest 364 419 36,000  Level Atlanta Center
Sat 06:40:14 AM 32.9267 -85.2019 234° Southwest 357 411 36,000  Level Atlanta Center
Sat 06:41:14 AM 32.8672 -85.2953 233° Southwest 357 411 36,000  Level Atlanta Center
Sat 06:42:14 AM 32.8058 -85.3908 233° Southwest 362 417 36,000  Level Atlanta Center
Sat 06:43:14 AM 32.7464 -85.4886 234° Southwest 362 417 36,000  Level Atlanta Center
Sat 06:44:15 AM 32.6844 -85.5864 233° Southwest 362 417 36,000  Level Atlanta Center
Sat 06:45:15 AM 32.6247 -85.6839 234° Southwest 367 422 36,000  Level Atlanta Center
Sat 06:46:14 AM 32.5631 -85.7789 232° Southwest 367 422 36,000  Level Atlanta Center
Sat 06:47:14 AM 32.5031 -85.8736 233° Southwest 383 441 36,000  Level Atlanta Center
Sat 06:48:15 AM 32.4411 -85.9733 234° Southwest 390 449 36,000  Level Atlanta Center
Sat 06:49:14 AM 32.3789 -86.0753 234° Southwest 390 449 36,000  Level Atlanta Center
Sat 06:50:14 AM 32.3189 -86.1697 233° Southwest 385 443 36,000  Level Atlanta Center
Sat 06:51:15 AM 32.2525 -86.2714 232° Southwest 385 443 36,000  Level Atlanta Center
Sat 06:52:15 AM 32.1881 -86.3728 233° Southwest 385 443 36,000  Level Atlanta Center
Sat 06:53:15 AM 32.1192 -86.4739 231° Southwest 369 425 36,000  Level Atlanta Center
Sat 06:54:15 AM 32.0525 -86.5703 231° Southwest 369 425 36,000  Level Atlanta Center
Sat 06:55:15 AM 31.9839 -86.6614 228° Southwest 374 430 36,000  Level Atlanta Center
Sat 06:56:15 AM 31.9175 -86.7450 227° Southwest 384 442 36,000  Level Atlanta Center
Sat 06:57:15 AM 31.8486 -86.8383 229° Southwest 384 442 36,000  Level Atlanta Center
Sat 06:58:15 AM 31.7836 -86.9317 231° Southwest 384 442 36,000  Level Atlanta Center
Sat 06:59:56 AM 31.6681 -87.0869 229° Southwest 371 427 36,000  Level Houston Center
Sat 07:00:56 AM 31.6000 -87.1800 229° Southwest 374 430 36,000  Level Houston Center
Sat 07:01:57 AM 31.5319 -87.2722 229° Southwest 374 430 36,000  Level Houston Center
Sat 07:02:57 AM 31.4644 -87.3653 230° Southwest 375 432 36,000  Level Houston Center
Sat 07:03:58 AM 31.3964 -87.4572 229° Southwest 374 430 36,000  Level Houston Center
Sat 07:04:58 AM 31.3275 -87.5508 229° Southwest 376 433 36,000  Level Houston Center
Sat 07:05:58 AM 31.2606 -87.6469 231° Southwest 382 440 36,000  Level Houston Center
Sat 07:06:59 AM 31.2200 -87.7600 247° West 379 436 36,000  Level Houston Center
Sat 07:07:59 AM 31.1781 -87.8811 248° West 384 442 36,000  Level Houston Center
Sat 07:08:59 AM 31.1378 -87.9953 248° West 383 441 36,000  Level Houston Center
Sat 07:10:00 AM 31.0975 -88.1100 248° West 382 440 36,000  Level Houston Center
Sat 07:11:00 AM 31.0550 -88.2256 247° West 388 447 36,000  Level Houston Center
Sat 07:12:01 AM 31.0125 -88.3397 247° West 386 444 36,000  Level Houston Center
Sat 07:13:01 AM 30.9728 -88.4556 248° West 385 443 36,000  Level Houston Center
Sat 07:14:02 AM 30.9322 -88.5683 247° West 379 436 36,000  Level Houston Center
Sat 07:15:02 AM 30.8883 -88.6897 247° West 384 442 36,000  Level Houston Center
Sat 07:16:03 AM 30.8475 -88.8033 247° West 380 437 36,000  Level Houston Center
Sat 07:17:03 AM 30.8047 -88.9175 246° West 385 443 36,000  Level Houston Center
Sat 07:18:04 AM 30.7664 -89.0244 247° West 383 441 36,000  Level Houston Center
Sat 07:19:04 AM 30.7175 -89.1606 247° West 383 441 36,000  Level Houston Center
Sat 07:20:05 AM 30.6769 -89.2758 248° West 384 442 36,000  Level Houston Center
Sat 07:21:06 AM 30.6350 -89.3886 247° West 384 442 36,000  Level Houston Center
Sat 07:22:06 AM 30.5944 -89.5028 248° West 384 442 36,000  Level Houston Center
Sat 07:23:07 AM 30.5517 -89.6156 246° West 384 442 36,000 -50 Level Houston Center
Sat 07:24:07 AM 30.5111 -89.7283 247° West 385 443 35,900  Descending Houston Center
Sat 07:25:08 AM 30.4683 -89.8400 246° West 387 445 36,000 50 Climbing Houston Center
Sat 07:26:08 AM 30.4267 -89.9514 247° West 386 444 36,000  Level Houston Center
Sat 07:27:09 AM 30.3850 -90.0639 247° West 388 447 36,000  Level Houston Center
Sat 07:28:10 AM 30.3417 -90.1767 246° West 388 447 36,000  Level Houston Center
Sat 07:29:10 AM 30.2989 -90.2906 247° West 389 448 36,000  Level Houston Center
Sat 07:30:11 AM 30.2556 -90.4044 246° West 388 447 36,000  Level Houston Center
Sat 07:31:11 AM 30.2036 -90.5414 246° West 390 449 36,000  Level Houston Center
Sat 07:32:12 AM 30.1594 -90.6558 246° West 391 450 36,000  Level Houston Center
Sat 07:33:13 AM 30.1167 -90.7686 246° West 386 444 36,000  Level Houston Center
Sat 07:34:13 AM 30.0753 -90.8778 246° West 374 430 36,000  Level Houston Center
Sat 07:35:14 AM 30.0333 -90.9867 246° West 373 429 36,000  Level Houston Center
Sat 07:36:14 AM 29.9906 -91.0978 246° West 377 434 36,000  Level Houston Center
Sat 07:37:15 AM 29.9461 -91.2097 245° Southwest 384 442 36,000  Level Houston Center
Sat 07:38:16 AM 29.9044 -91.3206 247° West 379 436 36,000  Level Houston Center
Sat 07:39:16 AM 29.8378 -91.4106 230° Southwest 370 426 36,000  Level Houston Center
Sat 07:40:17 AM 29.7622 -91.4903 222° Southwest 369 425 36,000  Level Houston Center
Sat 07:41:17 AM 29.6897 -91.5683 223° Southwest 360 414 36,000  Level Houston Center
Sat 07:42:18 AM 29.6158 -91.6444 222° Southwest 356 410 36,000  Level Houston Center
Sat 07:43:19 AM 29.5419 -91.7228 223° Southwest 353 406 36,000  Level Houston Center
Sat 07:44:19 AM 29.4700 -91.8000 223° Southwest 354 407 36,000  Level Houston Center
Sat 07:45:20 AM 29.4569 -91.9064 262° West 342 394 36,000  Level Houston Center
Sat 07:46:21 AM 29.4564 -92.0194 270° West 352 405 36,000  Level Houston Center
Sat 07:47:21 AM 29.4569 -92.1381 270° West 368 423 36,000  Level Houston Center
Sat 07:48:22 AM 29.4569 -92.2558 270° West 370 426 36,000  Level Houston Center
Sat 07:49:23 AM 29.4572 -92.3725 270° West 366 421 36,000  Level Houston Center
Sat 07:50:23 AM 29.4572 -92.4911 270° West 370 426 36,000  Level Houston Center
Sat 07:51:24 AM 29.4636 -92.6111 274° West 377 434 36,000  Level Houston Center
Sat 07:52:25 AM 29.4697 -92.7347 273° West 386 444 36,000  Level Houston Center
Sat 07:53:25 AM 29.4744 -92.8578 273° West 387 445 36,000 -446 Level Houston Center
Sat 07:54:26 AM 29.4808 -93.0047 273° West 385 443 35,100 -1,475 Descending Houston Center
Sat 07:55:27 AM 29.4872 -93.1294 273° West 390 449 33,000 -2,083 Descending Houston Center
Sat 07:56:27 AM 29.4925 -93.2567 273° West 397 457 30,900 -2,132 Descending Houston Center
Sat 07:57:28 AM 29.4969 -93.3844 272° West 399 459 28,700 -2,115 Descending Houston Center
Sat 07:58:29 AM 29.5022 -93.5158 273° West 407 468 26,600 -2,164 Descending Houston Center
Sat 07:59:30 AM 29.5075 -93.6475 273° West 410 472 24,300 -2,213 Descending Houston Center
Sat 08:00:31 AM 29.5131 -93.7800 273° West 414 476 22,100 -2,281 Descending Houston Center
Sat 08:01:31 AM 29.5181 -93.9075 273° West 407 468 19,700 -2,380 Descending Houston Center
Sat 08:02:32 AM 29.5211 -94.0242 272° West 382 440 17,300 -2,462 Descending Houston Center
Sat 08:02:49 AM 29.5225 -94.0606 273° West 364 419 16,500 -2,164 Descending Houston Center
Sat 08:03:33 AM 29.5264 -94.1392 273° West 363 418 15,100 -2,066 Descending Houston Center
Sat 08:03:50 AM 29.5264 -94.1828 270° West 364 419 14,400 -1,377 Descending Houston Center
Sat 08:04:34 AM 29.5303 -94.2531 274° West 364 419 13,700 -981 Descending Houston Center
Sat 08:05:34 AM 29.5406 -94.3617 276° West 336 387 12,700 -1,190 Descending Houston Center
Sat 08:06:35 AM 29.5772 -94.4469 296° West 302 348 11,300 -1,574 Descending Houston Center
Sat 08:07:36 AM 29.6128 -94.5289 297° West 290 334 9,500 -1,923 Descending Houston Center
Sat 08:07:53 AM 29.6275 -94.5639 296° West 290 334 8,800 -1,770 Descending Houston Center
Sat 08:08:37 AM 29.6483 -94.6117 297° West 291 335 7,700 -1,770 Descending Houston Center
Sat 08:08:54 AM 29.6772 -94.6442 316° Northwest 304 350 7,000 -1,672 Descending Houston Center
Sat 08:09:38 AM 29.7114 -94.6736 323° Northwest 301 346 6,000 -1,672 Descending Houston Center
Sat 08:09:55 AM 29.7381 -94.7086 311° West 288 331 5,300 -1,600 Descending Houston Center
Sat 08:10:38 AM 29.7758 -94.7536 314° West 286 329 4,400 -1,180 Descending Houston Center
Sat 08:10:56 AM 29.7928 -94.7739 314° West 282 325 4,100 -393 Descending Houston Center
Sat 08:11:39 AM 29.8308 -94.8183 315° West 284 327 4,000  Descending Houston Center
Sat 08:11:56 AM 29.8472 -94.8369 315° West 279 321 4,100  Climbing Houston Center
Sat 08:12:40 AM 29.8878 -94.8797 318° Northwest 283 326 4,000  Descending Houston Center
Sat 08:13:03 AM 29.9128 -94.9083 315° West 291 335 4,100  Climbing Houston Center
Sat 08:13:41 AM 29.9458 -94.9447 316° Northwest 290 334 4,000  Descending Houston Center
Sat 08:13:58 AM 29.9667 -94.9692 315° West 291 335 4,100  Climbing Houston Center
Sat 08:14:42 AM 29.9908 -95.0183 300° West 289 333 4,000  Descending Houston Center
Sat 08:15:05 AM 29.9942 -95.0597 275° West 289 333 4,100 -295 Climbing Houston Center
Sat 08:15:43 AM 29.9936 -95.1081 269° West 284 327 3,700 -885 Descending Houston Center
Sat 08:16:06 AM 29.9919 -95.1492 267° West 276 318 3,200 -1,377 Descending Houston Center
Sat 08:16:44 AM 29.9936 -95.1939 272° West 274 315 2,300 -1,421 Descending Houston Center

Login

Don't have an account? Register now (free) for customized features, flight alerts, and more!